Time;durP1;ratioP1;P1;durP2;ratioP2;P2;SDS_P1;SDS_P2;PMS_P1;PMS_P2;Temp;Humidity;BMP_temperature;BMP_pressure;BME280_temperature;BME280_humidity;BME280_pressure;Samples;Min_cycle;Max_cycle;Signal;HPM_P1;HPM_P2
2022/08/18 00:02:03;;;;;;;7.57;5.07;;;19.10;99.90;;;;;;5020143;28;20037;-35
2022/08/18 00:04:30;;;;;;;7.57;5.13;;;19.20;99.90;;;;;;5019987;28;20120;-34
2022/08/18 00:06:56;;;;;;;6.43;4.40;;;19.30;99.90;;;;;;5023189;28;20032;-35
2022/08/18 00:09:21;;;;;;;6.78;4.85;;;19.30;99.90;;;;;;5019181;28;20083;-36
2022/08/18 00:11:47;;;;;;;6.57;5.10;;;19.30;99.90;;;;;;5022559;28;20130;-34
2022/08/18 00:14:17;;;;;;;7.32;4.97;;;19.30;99.90;;;;;;5024924;28;20517;-33
2022/08/18 00:16:43;;;;;;;6.47;4.93;;;19.20;99.90;;;;;;5021361;28;20029;-34
2022/08/18 00:19:09;;;;;;;6.90;4.57;;;19.00;99.90;;;;;;5024626;28;20672;-35
2022/08/18 00:21:34;;;;;;;6.65;5.10;;;18.90;99.90;;;;;;5019322;28;20435;-34
2022/08/18 00:24:00;;;;;;;6.70;4.70;;;18.90;99.90;;;;;;5019070;28;20040;-35
2022/08/18 00:26:26;;;;;;;9.35;5.60;;;19.00;99.90;;;;;;5023210;28;20022;-33
2022/08/18 00:28:51;;;;;;;7.25;5.68;;;18.90;99.90;;;;;;5027324;28;20051;-33
2022/08/18 00:31:17;;;;;;;6.03;4.80;;;18.90;99.90;;;;;;5017686;28;20116;-37
2022/08/18 00:33:43;;;;;;;5.35;4.78;;;18.90;99.90;;;;;;5024143;28;20139;-37
2022/08/18 00:36:10;;;;;;;6.40;4.93;;;18.90;99.90;;;;;;5052001;28;20087;-34
2022/08/18 00:38:36;;;;;;;6.18;5.57;;;18.80;99.90;;;;;;5027746;28;20025;-36
2022/08/18 00:41:02;;;;;;;7.00;5.13;;;18.90;99.90;;;;;;5018771;28;20085;-33
2022/08/18 00:43:35;;;;;;;7.55;5.22;;;18.90;99.90;;;;;;5019067;28;20025;-34
2022/08/18 00:46:00;;;;;;;7.43;5.30;;;18.90;99.90;;;;;;5023580;28;20057;-34
2022/08/18 00:48:26;;;;;;;7.10;5.00;;;18.80;99.90;;;;;;5028841;28;20048;-37
2022/08/18 00:50:58;;;;;;;6.13;4.90;;;18.80;99.90;;;;;;5018618;28;20112;-36
2022/08/18 00:53:24;;;;;;;6.35;5.43;;;18.80;99.90;;;;;;5027100;28;20704;-33
2022/08/18 00:55:49;;;;;;;6.90;5.28;;;18.80;99.90;;;;;;5018036;28;20037;-35
2022/08/18 00:58:32;;;;;;;5.47;4.93;;;18.90;99.90;;;;;;5016628;28;20485;-34
2022/08/18 01:00:59;;;;;;;9.50;5.50;;;19.00;99.90;;;;;;5058922;28;20045;-34
2022/08/18 01:03:27;;;;;;;5.93;5.00;;;19.00;99.90;;;;;;5057648;28;20017;-36
2022/08/18 01:06:01;;;;;;;;;;;18.90;99.90;;;;;;5042810;28;20091;-39
2022/08/18 01:08:27;;;;;;;6.15;4.68;;;18.90;99.90;;;;;;5061508;28;19917;-34
2022/08/18 01:10:54;;;;;;;5.55;4.70;;;18.90;99.90;;;;;;5044003;28;20053;-36
2022/08/18 01:13:23;;;;;;;6.88;5.13;;;18.80;99.90;;;;;;5048298;28;20036;-33
2022/08/18 01:15:49;;;;;;;6.40;5.00;;;18.80;99.90;;;;;;5044161;28;20109;-35
2022/08/18 01:23:56;;;;;;;5.97;5.20;;;18.60;99.90;;;;;;5044350;28;20028;-37
2022/08/18 01:26:25;;;;;;;6.57;5.35;;;18.60;99.90;;;;;;5055883;28;20089;-36
2022/08/18 01:28:51;;;;;;;5.30;4.78;;;18.60;99.90;;;;;;5043353;28;20113;-37
2022/08/18 01:31:53;;;;;;;6.95;5.40;;;18.60;99.90;;;;;;5055425;28;20017;-33
2022/08/18 01:34:22;;;;;;;5.95;4.82;;;18.70;99.90;;;;;;5047429;28;20033;-37
2022/08/18 01:36:51;;;;;;;9.30;6.07;;;18.80;99.90;;;;;;5045406;28;20013;-35
2022/08/18 01:39:18;;;;;;;6.53;5.47;;;18.80;99.90;;;;;;5046149;28;20017;-34
2022/08/18 01:41:44;;;;;;;7.88;5.47;;;18.90;99.90;;;;;;5078946;28;20032;-33
2022/08/18 01:44:10;;;;;;;7.70;5.22;;;18.80;99.90;;;;;;5049895;28;20025;-34
2022/08/18 01:46:40;;;;;;;6.45;5.30;;;18.70;99.90;;;;;;5046163;28;20081;-36
2022/08/18 01:49:07;;;;;;;6.78;5.20;;;18.70;99.90;;;;;;5063349;28;20085;-37
2022/08/18 01:51:33;;;;;;;6.30;5.18;;;18.60;99.90;;;;;;5047209;28;20034;-33
2022/08/18 01:54:00;;;;;;;7.22;5.35;;;18.70;99.90;;;;;;5045875;28;20024;-37
2022/08/18 01:56:26;;;;;;;6.82;5.50;;;18.60;99.90;;;;;;5077263;28;20037;-36
2022/08/18 01:58:54;;;;;;;8.52;5.75;;;18.60;99.90;;;;;;5041317;28;20029;-34
2022/08/18 02:01:21;;;;;;;6.30;5.35;;;18.70;99.90;;;;;;5041725;28;21394;-38
2022/08/18 02:03:58;;;;;;;8.13;5.63;;;18.70;99.90;;;;;;5063473;28;20048;-32
2022/08/18 02:06:24;;;;;;;7.00;5.95;;;18.50;99.90;;;;;;5047647;28;20101;-32
2022/08/18 02:08:50;;;;;;;8.63;6.13;;;18.50;99.90;;;;;;5049501;28;21826;-36
2022/08/18 02:11:16;;;;;;;7.45;6.22;;;18.60;99.90;;;;;;5046117;28;20052;-36
2022/08/18 02:13:42;;;;;;;9.35;6.03;;;18.60;99.90;;;;;;5047871;28;20025;-38
2022/08/18 02:16:08;;;;;;;8.25;5.70;;;18.60;99.90;;;;;;5058039;28;20023;-37
2022/08/18 02:18:35;;;;;;;8.50;5.90;;;18.60;99.90;;;;;;5048724;28;20037;-33
2022/08/18 02:21:15;;;;;;;8.05;6.78;;;18.40;99.90;;;;;;5042059;28;20041;-38
2022/08/18 02:23:43;;;;;;;10.77;6.68;;;18.30;99.90;;;;;;5062856;28;20036;-38
2022/08/18 02:26:13;;;;;;;8.25;6.22;;;18.40;99.90;;;;;;5047205;28;20041;-36
2022/08/18 02:28:39;;;;;;;7.85;6.28;;;18.40;99.90;;;;;;5058059;28;20029;-39
2022/08/18 02:31:11;;;;;;;11.27;5.93;;;18.40;99.90;;;;;;5052911;28;20033;-35
2022/08/18 02:33:37;;;;;;;9.77;5.93;;;18.50;99.90;;;;;;5045564;28;20009;-37
2022/08/18 02:36:05;;;;;;;8.65;6.65;;;18.50;99.90;;;;;;5057671;28;20540;-39
2022/08/18 02:38:31;;;;;;;9.00;7.03;;;18.40;99.90;;;;;;5046151;28;20041;-37
2022/08/18 02:41:00;;;;;;;11.95;7.45;;;18.40;99.90;;;;;;5046676;28;20105;-34
2022/08/18 02:43:27;;;;;;;11.57;7.20;;;18.40;99.90;;;;;;5048419;28;20037;-37
2022/08/18 02:45:53;;;;;;;10.05;7.13;;;18.40;99.90;;;;;;5045705;28;20044;-37
2022/08/18 02:48:34;;;;;;;9.82;7.20;;;18.40;99.90;;;;;;5046759;28;20064;-35
2022/08/18 02:51:13;;;;;;;11.52;7.80;;;18.40;99.90;;;;;;5079290;28;20048;-35
2022/08/18 02:53:39;;;;;;;;;;;18.40;99.90;;;;;;5066870;28;20025;-39
2022/08/18 02:56:24;;;;;;;10.90;6.53;;;18.40;99.90;;;;;;5075695;28;19905;-37
2022/08/18 02:58:53;;;;;;;8.00;6.43;;;18.40;99.90;;;;;;5045871;28;20036;-36
2022/08/18 03:01:25;;;;;;;8.02;6.20;;;18.30;99.90;;;;;;5042774;28;20038;-40
2022/08/18 03:03:51;;;;;;;9.77;7.00;;;18.30;99.90;;;;;;5050150;28;20276;-36
2022/08/18 03:06:19;;;;;;;7.60;6.40;;;18.30;99.90;;;;;;5046388;28;20053;-34
2022/08/18 03:08:48;;;;;;;8.65;6.28;;;18.40;99.90;;;;;;5047731;28;20093;-37
2022/08/18 03:11:22;;;;;;;10.25;6.70;;;18.30;99.90;;;;;;5077462;28;20095;-36
2022/08/18 03:13:49;;;;;;;9.50;6.15;;;18.40;99.90;;;;;;5063294;28;20013;-33
2022/08/18 03:16:16;;;;;;;8.85;6.20;;;18.40;99.90;;;;;;5045557;28;20029;-34
2022/08/18 03:18:43;;;;;;;8.80;6.73;;;18.40;99.90;;;;;;5060105;28;21435;-39
2022/08/18 03:21:16;;;;;;;7.05;6.35;;;18.50;99.90;;;;;;5046861;28;20118;-37
2022/08/18 03:23:43;;;;;;;8.30;6.20;;;18.40;99.90;;;;;;5064558;28;20045;-37
2022/08/18 03:26:11;;;;;;;7.93;6.40;;;18.40;99.90;;;;;;5045579;28;20025;-37
2022/08/18 03:28:37;;;;;;;;;;;18.40;99.90;;;;;;5043136;28;20055;-35
2022/08/18 03:31:04;;;;;;;9.05;6.68;;;18.40;99.90;;;;;;5057866;28;19991;-35
2022/08/18 03:33:30;;;;;;;7.65;5.97;;;18.30;99.90;;;;;;5045020;28;20101;-37
2022/08/18 03:35:55;;;;;;;9.52;6.63;;;18.20;99.90;;;;;;5044146;28;20049;-36
2022/08/18 03:38:22;;;;;;;7.47;5.88;;;18.20;99.90;;;;;;5047693;28;20044;-38
2022/08/18 03:40:52;;;;;;;7.60;5.90;;;18.20;99.90;;;;;;5047180;28;20648;-34
2022/08/18 03:43:18;;;;;;;7.05;5.78;;;18.20;99.90;;;;;;5044272;28;20036;-38
2022/08/18 03:45:45;;;;;;;7.65;6.10;;;18.20;99.90;;;;;;5056892;28;20055;-39
2022/08/18 03:48:11;;;;;;;9.32;6.15;;;18.20;99.90;;;;;;5047807;28;20033;-34
2022/08/18 03:50:36;;;;;;;9.90;6.47;;;18.20;99.90;;;;;;5044040;28;20021;-37
2022/08/18 03:53:04;;;;;;;6.88;5.35;;;18.20;99.90;;;;;;5052728;28;20061;-37
2022/08/18 03:55:31;;;;;;;8.40;6.18;;;18.20;99.90;;;;;;5047118;28;20510;-37
2022/08/18 03:58:03;;;;;;;9.43;6.22;;;18.20;99.90;;;;;;5062614;28;20052;-38
2022/08/18 04:00:30;;;;;;;8.32;5.93;;;18.10;99.90;;;;;;5055193;28;20116;-37
2022/08/18 04:02:58;;;;;;;7.55;6.00;;;18.00;99.90;;;;;;5043215;28;20104;-37
2022/08/18 04:05:25;;;;;;;7.38;6.32;;;18.10;99.90;;;;;;5046263;28;20022;-38
2022/08/18 04:07:52;;;;;;;11.45;6.07;;;18.10;99.90;;;;;;5051032;28;20047;-37
2022/08/18 04:10:20;;;;;;;8.07;6.40;;;18.10;99.90;;;;;;5081426;28;20680;-34
2022/08/18 04:12:46;;;;;;;;;;;18.00;99.90;;;;;;5051999;28;20059;-37
2022/08/18 04:15:12;;;;;;;8.77;6.20;;;18.00;99.90;;;;;;5046287;28;20018;-38
2022/08/18 04:17:38;;;;;;;9.00;6.32;;;18.00;99.90;;;;;;5061407;28;20047;-36
2022/08/18 04:20:04;;;;;;;10.07;6.80;;;17.90;99.90;;;;;;5045144;28;20569;-35
2022/08/18 04:22:33;;;;;;;7.35;6.30;;;17.90;99.90;;;;;;5081998;28;20031;-39
2022/08/18 04:24:59;;;;;;;;;;;18.00;99.90;;;;;;5044757;28;20123;-35
2022/08/18 04:27:27;;;;;;;6.57;5.32;;;18.00;99.90;;;;;;5047764;28;19909;-39
2022/08/18 04:29:55;;;;;;;8.43;6.53;;;18.10;99.90;;;;;;5048461;28;20029;-35
2022/08/18 04:32:22;;;;;;;7.88;6.05;;;18.20;99.90;;;;;;5041123;28;20037;-38
2022/08/18 04:34:48;;;;;;;7.32;6.00;;;18.20;99.90;;;;;;5045520;28;20072;-34
2022/08/18 04:37:15;;;;;;;6.80;6.03;;;18.10;99.90;;;;;;5081453;28;20018;-34
2022/08/18 04:39:41;;;;;;;8.48;6.07;;;18.20;99.90;;;;;;5063425;28;20028;-38
2022/08/18 04:42:07;;;;;;;8.57;6.20;;;18.20;99.90;;;;;;5077252;28;20034;-36
2022/08/18 04:44:36;;;;;;;8.25;6.55;;;18.20;99.90;;;;;;5080375;28;20053;-37
2022/08/18 04:47:03;;;;;;;12.98;6.10;;;18.10;99.90;;;;;;5044664;28;20050;-38
2022/08/18 04:49:30;;;;;;;8.70;5.97;;;18.10;99.90;;;;;;5045330;28;20055;-35
2022/08/18 04:54:42;;;;;;;8.15;5.72;;;18.20;99.90;;;;;;5047839;28;20102;-34
2022/08/18 04:57:17;;;;;;;10.27;6.82;;;18.30;99.90;;;;;;5061796;28;20021;-34
2022/08/18 04:59:45;;;;;;;7.40;6.30;;;18.30;99.90;;;;;;5060761;28;20033;-39
2022/08/18 05:02:12;;;;;;;6.72;5.90;;;18.30;99.90;;;;;;5058987;28;20033;-35
2022/08/18 05:04:40;;;;;;;8.02;6.15;;;18.30;99.90;;;;;;5045264;28;20032;-37
2022/08/18 05:07:11;;;;;;;7.18;6.00;;;18.40;99.90;;;;;;5063922;28;20040;-36
2022/08/18 05:09:38;;;;;;;8.88;6.03;;;18.40;99.90;;;;;;5060238;28;20026;-36
2022/08/18 05:12:05;;;;;;;6.80;5.53;;;18.40;99.90;;;;;;5052213;28;20029;-34
2022/08/18 05:14:32;;;;;;;7.05;6.15;;;18.40;99.90;;;;;;5045943;28;20104;-38
2022/08/18 05:16:59;;;;;;;8.32;5.88;;;18.40;99.90;;;;;;5057770;28;20033;-39
2022/08/18 05:19:25;;;;;;;8.13;5.95;;;18.30;99.90;;;;;;5043261;28;20120;-36
2022/08/18 05:21:52;;;;;;;10.50;5.45;;;18.30;99.90;;;;;;5059896;28;20056;-36
2022/08/18 05:24:20;;;;;;;8.83;5.37;;;18.30;99.90;;;;;;5068216;28;20028;-34
2022/08/18 05:26:47;;;;;;;6.75;5.00;;;18.40;99.90;;;;;;5049160;28;20010;-37
2022/08/18 05:29:15;;;;;;;8.63;5.55;;;18.40;99.90;;;;;;5043809;28;20041;-37
2022/08/18 05:31:41;;;;;;;5.60;4.65;;;18.30;99.90;;;;;;5059565;28;20071;-33
2022/08/18 05:34:07;;;;;;;6.93;5.57;;;18.30;99.90;;;;;;5045500;28;20021;-37
2022/08/18 05:36:48;;;;;;;7.38;5.80;;;18.20;99.90;;;;;;5044226;28;20055;-35
2022/08/18 05:39:22;;;;;;;6.43;4.75;;;18.10;99.90;;;;;;5076571;28;20041;-37
2022/08/18 05:42:10;;;;;;;8.20;6.57;;;18.00;99.90;;;;;;5076752;28;20056;-37
2022/08/18 05:44:43;;;;;;;6.82;5.30;;;18.10;99.90;;;;;;5041850;28;20033;-38
2022/08/18 05:47:21;;;;;;;7.20;5.20;;;18.20;99.90;;;;;;5058527;28;20126;-33
2022/08/18 05:49:48;;;;;;;6.82;4.97;;;18.20;99.90;;;;;;5041029;28;20033;-37
2022/08/18 05:52:24;;;;;;;5.90;5.30;;;18.30;99.90;;;;;;5046293;28;20029;-36
2022/08/18 05:57:52;;;;;;;6.07;4.78;;;18.30;99.90;;;;;;5041304;28;20040;-37
2022/08/18 06:00:22;;;;;;;6.95;5.40;;;18.30;99.90;;;;;;5033003;28;20029;-42
2022/08/18 06:03:11;;;;;;;6.20;5.45;;;18.20;99.90;;;;;;5017811;28;20525;-37
2022/08/18 06:05:56;;;;;;;6.38;5.22;;;18.20;99.90;;;;;;5024374;28;20088;-40
2022/08/18 06:08:27;;;;;;;6.50;5.32;;;18.20;99.90;;;;;;5018990;28;20410;-41
2022/08/18 06:10:53;;;;;;;7.05;5.85;;;18.20;99.90;;;;;;5020176;28;20052;-38
2022/08/18 06:13:20;;;;;;;6.65;5.45;;;18.20;99.90;;;;;;5023661;28;20104;-41
2022/08/18 06:16:11;;;;;;;6.97;5.80;;;18.10;99.90;;;;;;5029267;28;20403;-39
2022/08/18 06:18:48;;;;;;;6.45;5.75;;;18.10;99.90;;;;;;5030466;28;20032;-42
2022/08/18 06:21:44;;;;;;;7.60;6.13;;;18.00;99.90;;;;;;5024847;28;20398;-39
2022/08/18 06:24:24;;;;;;;7.95;5.63;;;18.00;99.90;;;;;;5026033;28;20035;-35
2022/08/18 06:27:08;;;;;;;6.70;5.60;;;18.00;99.90;;;;;;5029025;28;20033;-39
2022/08/18 06:29:49;;;;;;;8.50;5.90;;;18.00;99.90;;;;;;5027677;28;20029;-41
2022/08/18 06:32:33;;;;;;;6.68;5.28;;;18.10;99.90;;;;;;5020443;28;20421;-38
2022/08/18 06:35:32;;;;;;;6.82;5.85;;;18.10;99.90;;;;;;5021303;28;20022;-39
2022/08/18 06:41:41;;;;;;;10.00;6.00;;;17.90;99.90;;;;;;5023818;28;20048;-38
2022/08/18 06:44:08;;;;;;;7.03;5.70;;;18.10;99.90;;;;;;5023661;28;20120;-39
2022/08/18 06:46:49;;;;;;;8.93;6.43;;;18.20;99.90;;;;;;5027021;28;20116;-41
2022/08/18 06:49:50;;;;;;;9.02;6.75;;;18.20;99.90;;;;;;5032069;28;20018;-38
2022/08/18 06:52:29;;;;;;;7.85;6.47;;;18.30;99.90;;;;;;5026744;28;20373;-41
2022/08/18 06:55:01;;;;;;;10.93;6.25;;;18.30;99.90;;;;;;5027217;28;20530;-34
2022/08/18 06:57:37;;;;;;;10.20;6.75;;;18.40;99.90;;;;;;5023806;28;20072;-41
2022/08/18 07:00:17;;;;;;;9.40;6.57;;;18.40;99.90;;;;;;5022331;28;20030;-39
2022/08/18 07:02:53;;;;;;;11.48;6.93;;;18.50;99.90;;;;;;5024541;28;20410;-42
2022/08/18 07:05:22;;;;;;;9.70;6.75;;;18.60;99.90;;;;;;5024201;28;20029;-41
2022/08/18 07:08:10;;;;;;;10.43;7.40;;;18.60;99.90;;;;;;5024828;28;20037;-41
2022/08/18 07:10:42;;;;;;;10.65;7.53;;;18.70;99.90;;;;;;5024861;28;21109;-37
2022/08/18 07:13:25;;;;;;;10.57;7.80;;;18.70;99.90;;;;;;5022623;28;22440;-41
2022/08/18 07:16:12;;;;;;;9.30;7.10;;;18.70;99.90;;;;;;5029319;28;20037;-39
2022/08/18 07:18:38;;;;;;;10.85;7.50;;;18.90;99.90;;;;;;5035403;28;20041;-36
2022/08/18 07:21:04;;;;;;;9.70;7.70;;;18.90;99.90;;;;;;5027590;28;20083;-36
2022/08/18 07:23:38;;;;;;;9.07;7.43;;;19.00;99.90;;;;;;5027245;28;20033;-41
2022/08/18 07:26:11;;;;;;;10.38;7.68;;;19.10;99.90;;;;;;5023623;28;20033;-39
2022/08/18 07:28:43;;;;;;;10.88;8.02;;;19.10;99.90;;;;;;5026142;28;20403;-36
2022/08/18 07:31:37;;;;;;;10.45;7.72;;;19.00;99.90;;;;;;5024384;28;20063;-40
2022/08/18 07:34:15;;;;;;;10.20;7.28;;;19.00;99.90;;;;;;5022548;28;20034;-39
2022/08/18 07:37:01;;;;;;;9.18;7.00;;;18.90;99.90;;;;;;5023181;28;20036;-41
2022/08/18 07:39:27;;;;;;;10.13;7.75;;;19.00;99.90;;;;;;5021305;28;20137;-38
2022/08/18 07:42:05;;;;;;;10.15;7.97;;;19.00;99.90;;;;;;5022650;28;20736;-40
2022/08/18 07:44:33;;;;;;;9.98;7.65;;;18.90;99.90;;;;;;5022444;28;20033;-38
2022/08/18 07:47:03;;;;;;;12.07;7.97;;;19.00;99.90;;;;;;5032150;28;20474;-39
2022/08/18 07:49:35;;;;;;;12.10;8.23;;;19.10;99.90;;;;;;5028208;28;20036;-40
2022/08/18 07:52:10;;;;;;;11.18;7.88;;;19.20;99.90;;;;;;5030821;28;20363;-36
2022/08/18 07:54:49;;;;;;;12.60;8.10;;;19.30;99.90;;;;;;5024532;28;20036;-41
2022/08/18 07:57:18;;;;;;;11.07;8.02;;;19.50;99.90;;;;;;5024623;28;20043;-40
2022/08/18 07:59:52;;;;;;;14.00;7.63;;;19.40;99.90;;;;;;5022145;28;20112;-41
2022/08/18 08:02:51;;;;;;;11.20;7.80;;;19.40;99.90;;;;;;5024401;28;20064;-41
2022/08/18 08:05:20;;;;;;;9.57;7.72;;;19.50;99.90;;;;;;5029834;28;20034;-39
2022/08/18 08:08:01;;;;;;;12.55;8.07;;;19.60;99.90;;;;;;5027705;28;20025;-38
2022/08/18 08:10:41;;;;;;;11.18;8.13;;;19.70;99.90;;;;;;5029317;28;20025;-42
2022/08/18 08:13:25;;;;;;;12.10;8.55;;;19.80;99.90;;;;;;5033624;28;20039;-39
2022/08/18 08:15:59;;;;;;;11.10;8.65;;;19.90;99.90;;;;;;5035315;28;20377;-36
2022/08/18 08:18:34;;;;;;;13.27;8.75;;;19.80;99.90;;;;;;5035164;28;20053;-41
2022/08/18 08:21:14;;;;;;;11.93;8.15;;;20.00;99.90;;;;;;5021526;28;20130;-36
2022/08/18 08:23:54;;;;;;;12.20;9.18;;;20.10;99.90;;;;;;5029163;28;20042;-41
2022/08/18 08:26:59;;;;;;;9.70;8.00;;;20.30;99.90;;;;;;5030704;28;20642;-36
2022/08/18 08:29:50;;;;;;;11.30;7.97;;;20.40;99.90;;;;;;5029012;28;20120;-38
2022/08/18 08:32:45;;;;;;;12.55;8.35;;;20.20;99.90;;;;;;5028095;28;20045;-40
2022/08/18 08:35:18;;;;;;;9.55;7.38;;;20.30;99.90;;;;;;5002497;28;20099;-39
2022/08/18 08:37:50;;;;;;;12.27;8.38;;;20.60;99.90;;;;;;5024017;28;20041;-37
2022/08/18 08:40:22;;;;;;;10.82;8.30;;;20.60;99.90;;;;;;5025504;28;20033;-42
2022/08/18 08:43:03;;;;;;;10.38;7.82;;;20.60;99.90;;;;;;5023239;28;20033;-41
2022/08/18 08:45:35;;;;;;;10.27;8.13;;;20.40;99.90;;;;;;5019055;28;20112;-38
2022/08/18 08:48:16;;;;;;;9.55;7.25;;;20.50;99.90;;;;;;5020617;28;20025;-41
2022/08/18 08:50:54;;;;;;;11.82;8.05;;;20.60;99.90;;;;;;5021181;28;20478;-40
2022/08/18 08:53:25;;;;;;;10.82;7.95;;;20.80;99.90;;;;;;5023692;28;20117;-40
2022/08/18 08:55:55;;;;;;;9.30;7.10;;;20.60;99.90;;;;;;5035087;28;20029;-42
2022/08/18 08:58:44;;;;;;;8.73;7.05;;;20.80;99.90;;;;;;5054909;28;20037;-42
2022/08/18 09:01:24;;;;;;;9.38;7.30;;;20.90;99.90;;;;;;5029010;28;20067;-40
2022/08/18 09:04:28;;;;;;;8.50;6.75;;;21.00;99.90;;;;;;5033894;28;20114;-42
2022/08/18 09:06:56;;;;;;;10.23;7.60;;;21.30;99.90;;;;;;5031970;28;20041;-38
2022/08/18 09:09:59;;;;;;;9.43;7.40;;;21.60;99.90;;;;;;5032657;28;20614;-41
2022/08/18 09:12:35;;;;;;;9.50;7.32;;;21.70;99.90;;;;;;5026966;28;20036;-42
2022/08/18 09:15:20;;;;;;;7.90;6.75;;;22.00;99.90;;;;;;5030572;28;20034;-42
2022/08/18 09:17:55;;;;;;;8.23;6.85;;;22.10;99.90;;;;;;5026618;28;20033;-37
2022/08/18 09:20:31;;;;;;;8.18;6.43;;;21.90;99.90;;;;;;5034255;28;20032;-41
2022/08/18 09:23:09;;;;;;;8.73;6.60;;;22.20;99.90;;;;;;5029285;28;21068;-42
2022/08/18 09:25:38;;;;;;;10.50;7.32;;;22.50;99.90;;;;;;5030024;28;20098;-42
2022/08/18 09:28:12;;;;;;;7.93;6.93;;;22.60;99.90;;;;;;5028498;28;20523;-40
2022/08/18 09:30:40;;;;;;;9.20;6.57;;;22.60;99.90;;;;;;5026359;28;20045;-42
2022/08/18 09:33:30;;;;;;;7.07;6.05;;;22.90;99.90;;;;;;5029249;28;20031;-40
2022/08/18 09:36:20;;;;;;;7.05;5.80;;;22.90;99.90;;;;;;5034469;28;20041;-42
2022/08/18 09:41:50;;;;;;;6.38;5.70;;;22.60;99.90;;;;;;5025828;28;20036;-36
2022/08/18 09:44:52;;;;;;;7.72;6.35;;;22.70;99.90;;;;;;5033215;28;20044;-42
2022/08/18 09:47:20;;;;;;;9.60;6.95;;;23.00;99.90;;;;;;5025966;28;20384;-42
2022/08/18 09:49:52;;;;;;;7.60;6.35;;;23.20;99.90;;;;;;5028511;28;20037;-40
2022/08/18 09:52:20;;;;;;;7.60;6.15;;;23.40;99.90;;;;;;5030741;28;20482;-42
2022/08/18 09:55:04;;;;;;;8.05;6.22;;;23.50;99.90;;;;;;5031014;28;20024;-40
2022/08/18 09:57:35;;;;;;;7.22;5.72;;;23.20;99.90;;;;;;5030558;28;20045;-41
2022/08/18 10:00:06;;;;;;;8.25;6.07;;;23.40;99.90;;;;;;5029528;28;20041;-39
2022/08/18 10:02:31;;;;;;;7.32;5.97;;;23.20;99.90;;;;;;5026691;28;20064;-38
2022/08/18 10:05:18;;;;;;;6.95;5.68;;;23.40;99.90;;;;;;5062044;28;20076;-41
2022/08/18 10:07:52;;;;;;;6.82;6.05;;;23.60;99.90;;;;;;5027663;28;20033;-41
2022/08/18 10:10:28;;;;;;;7.25;6.35;;;23.60;99.10;;;;;;5029403;28;20080;-38
2022/08/18 10:13:32;;;;;;;8.65;6.10;;;23.70;99.90;;;;;;5032010;28;20037;-40
2022/08/18 10:15:58;;;;;;;6.70;6.10;;;23.60;99.80;;;;;;5026057;28;20041;-38
2022/08/18 10:18:36;;;;;;;6.50;5.85;;;23.70;99.60;;;;;;5029645;28;20549;-40
2022/08/18 10:21:16;;;;;;;8.20;6.57;;;23.80;99.90;;;;;;5030853;28;20034;-41
2022/08/18 10:24:09;;;;;;;9.18;6.47;;;24.10;98.70;;;;;;5030278;28;20066;-41
2022/08/18 10:26:37;;;;;;;6.90;6.22;;;24.10;99.90;;;;;;5035062;28;20473;-39
2022/08/18 10:29:09;;;;;;;7.32;6.22;;;24.10;98.20;;;;;;5029913;28;20029;-41
2022/08/18 10:31:54;;;;;;;7.65;6.85;;;24.30;98.30;;;;;;5031797;28;20502;-32
2022/08/18 10:34:40;;;;;;;10.60;7.03;;;24.50;97.10;;;;;;5033871;28;20088;-39
2022/08/18 10:37:38;;;;;;;7.15;6.45;;;24.60;96.90;;;;;;5028570;28;20038;-35
2022/08/18 10:40:12;;;;;;;9.80;6.72;;;24.60;97.30;;;;;;5033466;28;20049;-35
2022/08/18 10:42:52;;;;;;;7.30;6.60;;;24.30;98.50;;;;;;5032084;28;20025;-37
2022/08/18 10:45:44;;;;;;;8.45;6.97;;;24.40;97.90;;;;;;5029372;28;20048;-35
2022/08/18 10:48:23;;;;;;;10.38;7.80;;;24.30;98.90;;;;;;5029906;28;20022;-40
2022/08/18 10:50:52;;;;;;;9.10;8.02;;;24.00;99.20;;;;;;5024052;28;20029;-37
2022/08/18 10:53:34;;;;;;;9.15;7.80;;;23.90;99.90;;;;;;5023648;28;20104;-39
2022/08/18 10:56:16;;;;;;;7.43;6.72;;;23.60;99.00;;;;;;5029143;28;20540;-38
2022/08/18 10:59:05;;;;;;;7.70;6.53;;;23.70;99.90;;;;;;5028072;28;20033;-36
2022/08/18 11:01:50;;;;;;;7.15;6.20;;;24.00;99.60;;;;;;5030483;28;20038;-41
2022/08/18 11:04:48;;;;;;;7.07;6.40;;;24.60;96.50;;;;;;5034561;28;20400;-34
2022/08/18 11:07:21;;;;;;;8.45;6.50;;;24.00;95.30;;;;;;5033119;28;20378;-37
2022/08/18 11:09:57;;;;;;;8.38;6.57;;;24.40;97.90;;;;;;5036676;28;20025;-41
2022/08/18 11:12:56;;;;;;;7.53;6.82;;;24.60;97.10;;;;;;5032662;28;20045;-41
2022/08/18 11:15:36;;;;;;;8.38;6.88;;;24.90;97.50;;;;;;5032031;28;20033;-41
2022/08/18 11:18:13;;;;;;;8.38;6.95;;;24.80;97.20;;;;;;5031791;28;20397;-39
2022/08/18 11:20:41;;;;;;;8.45;6.95;;;24.50;95.40;;;;;;5030436;28;20041;-41
2022/08/18 11:23:11;;;;;;;;;;;24.40;95.40;;;;;;5033822;28;20033;-40
2022/08/18 11:25:38;;;;;;;8.60;7.38;;;24.40;95.40;;;;;;5031132;28;20299;-38
2022/08/18 11:28:17;;;;;;;9.27;8.38;;;24.20;97.30;;;;;;5032981;28;20024;-38
2022/08/18 11:30:46;;;;;;;7.68;6.97;;;24.20;98.50;;;;;;5026814;28;20034;-38
2022/08/18 11:33:16;;;;;;;8.35;7.30;;;24.30;96.70;;;;;;5027482;28;20032;-39
2022/08/18 11:35:58;;;;;;;8.75;7.57;;;24.30;95.80;;;;;;5034047;28;20061;-40
2022/08/18 11:38:26;;;;;;;8.23;6.80;;;24.40;99.90;;;;;;5030542;28;20064;-40
2022/08/18 11:41:08;;;;;;;7.57;6.80;;;24.40;97.30;;;;;;5032130;28;20076;-41
2022/08/18 11:43:36;;;;;;;7.15;6.45;;;24.30;96.20;;;;;;5031942;28;20047;-34
2022/08/18 11:46:14;;;;;;;8.98;7.70;;;24.30;93.50;;;;;;5036907;28;20082;-38
2022/08/18 11:48:39;;;;;;;8.20;7.32;;;24.30;97.40;;;;;;5034721;28;20025;-41
2022/08/18 11:51:16;;;;;;;9.90;8.60;;;24.40;95.70;;;;;;5030417;28;20031;-38
2022/08/18 11:54:03;;;;;;;12.65;9.38;;;24.50;96.50;;;;;;5035056;28;20033;-35
2022/08/18 11:56:30;;;;;;;;;;;24.30;96.10;;;;;;5005312;28;20044;-36
2022/08/18 11:59:00;;;;;;;9.15;6.53;;;24.10;95.60;;;;;;5037395;28;19951;-41
2022/08/18 12:01:55;;;;;;;6.53;5.93;;;24.30;94.10;;;;;;5029774;28;20040;-37
2022/08/18 12:04:30;;;;;;;9.73;7.93;;;24.30;92.60;;;;;;5029874;28;20038;-38
2022/08/18 12:06:59;;;;;;;9.60;8.15;;;24.40;94.80;;;;;;5028894;28;20076;-41
2022/08/18 12:09:42;;;;;;;8.52;7.28;;;24.30;94.40;;;;;;5025192;28;20028;-41
2022/08/18 12:12:17;;;;;;;8.70;7.38;;;24.40;92.70;;;;;;5035509;28;20025;-41
2022/08/18 12:15:10;;;;;;;7.47;6.78;;;24.40;93.30;;;;;;5059039;28;20190;-39
2022/08/18 12:17:36;;;;;;;7.32;6.32;;;24.30;93.50;;;;;;5032805;28;20041;-42
2022/08/18 12:20:04;;;;;;;8.68;6.50;;;24.40;95.20;;;;;;5031641;28;20503;-41
2022/08/18 12:22:30;;;;;;;6.38;5.72;;;24.50;92.70;;;;;;5030359;28;20034;-37
2022/08/18 12:24:57;;;;;;;7.53;6.60;;;24.50;91.20;;;;;;5035389;28;20566;-41
2022/08/18 12:27:24;;;;;;;8.48;7.43;;;24.50;93.40;;;;;;5028783;28;20387;-41
2022/08/18 12:29:52;;;;;;;7.70;6.95;;;24.40;91.70;;;;;;5031576;28;20026;-36
2022/08/18 12:32:19;;;;;;;10.18;8.07;;;24.40;94.20;;;;;;5030692;28;20026;-41
2022/08/18 12:34:45;;;;;;;7.70;7.00;;;24.50;93.60;;;;;;5064521;28;20029;-36
2022/08/18 12:37:16;;;;;;;8.57;7.47;;;24.40;95.20;;;;;;5027524;28;20111;-40
2022/08/18 12:39:42;;;;;;;7.70;6.97;;;24.50;94.10;;;;;;5041485;28;20020;-40
2022/08/18 12:42:08;;;;;;;10.02;7.82;;;24.40;94.90;;;;;;5032117;28;20029;-40
2022/08/18 12:44:33;;;;;;;8.25;6.43;;;24.40;95.50;;;;;;5035846;28;21484;-37
2022/08/18 12:47:09;;;;;;;11.80;7.90;;;24.50;98.70;;;;;;5032350;28;20030;-41
2022/08/18 12:49:35;;;;;;;8.02;6.93;;;24.50;92.60;;;;;;5035783;28;20024;-40
2022/08/18 12:52:01;;;;;;;8.90;6.88;;;24.50;92.80;;;;;;5031637;28;20025;-41
2022/08/18 12:54:26;;;;;;;10.02;7.13;;;24.50;93.70;;;;;;5060926;28;20037;-38
2022/08/18 12:56:55;;;;;;;8.32;7.50;;;24.50;93.20;;;;;;5031532;28;20048;-41
2022/08/18 12:59:21;;;;;;;8.35;7.55;;;24.50;92.40;;;;;;5032109;28;20025;-41
2022/08/18 13:01:46;;;;;;;9.88;7.93;;;24.60;94.80;;;;;;5031368;28;20128;-40
2022/08/18 13:04:12;;;;;;;10.00;8.50;;;24.50;93.00;;;;;;5026852;28;20104;-41
2022/08/18 13:06:43;;;;;;;9.20;8.25;;;24.30;94.80;;;;;;5032614;28;20387;-38
2022/08/18 13:09:09;;;;;;;8.52;7.70;;;24.30;94.30;;;;;;5030738;28;20811;-41
2022/08/18 13:11:34;;;;;;;9.70;7.68;;;24.30;92.90;;;;;;5031389;28;20139;-41
2022/08/18 13:14:00;;;;;;;9.75;7.45;;;24.30;94.30;;;;;;5032611;28;20029;-40
2022/08/18 13:16:30;;;;;;;9.60;8.05;;;24.50;93.60;;;;;;5024428;28;20116;-41
2022/08/18 13:18:55;;;;;;;10.02;8.73;;;24.70;93.80;;;;;;5026939;28;20033;-38
2022/08/18 13:21:21;;;;;;;9.07;8.00;;;24.60;94.60;;;;;;5028939;28;20399;-39
2022/08/18 13:23:47;;;;;;;9.55;8.10;;;24.50;94.20;;;;;;5036463;28;20043;-40
2022/08/18 13:26:20;;;;;;;9.10;7.20;;;24.50;94.20;;;;;;5034499;28;20037;-41
2022/08/18 13:28:45;;;;;;;7.78;7.07;;;24.50;93.90;;;;;;5035180;28;20116;-40
2022/08/18 13:31:11;;;;;;;8.77;7.18;;;24.70;95.00;;;;;;5025847;28;20156;-40
2022/08/18 13:33:39;;;;;;;10.18;6.88;;;24.70;93.60;;;;;;5024447;28;20116;-40